Time;durP1;ratioP1;P1;durP2;ratioP2;P2;SDS_P1;SDS_P2;PMS_P1;PMS_P2;Temp;Humidity;BMP_temperature;BMP_pressure;BME280_temperature;BME280_humidity;BME280_pressure;Samples;Min_cycle;Max_cycle;Signal;HPM_P1;HPM_P2
2022/06/02 00:02:12;;;;;;;3.60;1.30;;;24.70;46.50;;;;;;5012884;28;20026;-49
2022/06/02 00:04:40;;;;;;;2.03;0.93;;;24.70;46.60;;;;;;5017800;28;20185;-50
2022/06/02 00:07:11;;;;;;;1.52;0.70;;;24.70;46.60;;;;;;5015371;28;20024;-49
2022/06/02 00:09:48;;;;;;;2.03;0.85;;;24.70;46.50;;;;;;5014242;28;20025;-49
2022/06/02 00:12:38;;;;;;;1.73;0.95;;;24.60;46.50;;;;;;5013617;28;20808;-49
2022/06/02 00:15:23;;;;;;;3.50;1.02;;;24.60;46.50;;;;;;5013022;28;20036;-50
2022/06/02 00:18:08;;;;;;;2.05;1.02;;;24.70;46.60;;;;;;5014536;28;20026;-49
2022/06/02 00:20:34;;;;;;;2.38;0.95;;;24.70;46.60;;;;;;5014008;28;20105;-49
2022/06/02 00:23:10;;;;;;;1.90;0.90;;;24.70;46.60;;;;;;5012974;28;20030;-49
2022/06/02 00:25:46;;;;;;;1.80;0.80;;;24.70;46.60;;;;;;5012420;28;20811;-50
2022/06/02 00:28:46;;;;;;;2.63;1.10;;;24.60;46.50;;;;;;5013290;28;20470;-50
2022/06/02 00:31:29;;;;;;;1.83;0.90;;;24.60;46.50;;;;;;5012948;28;20025;-50
2022/06/02 00:34:05;;;;;;;1.30;0.60;;;24.60;46.50;;;;;;5012522;28;20485;-51
2022/06/02 00:36:42;;;;;;;3.03;0.90;;;24.60;46.50;;;;;;5013051;28;20037;-48
2022/06/02 00:39:08;;;;;;;2.38;1.10;;;24.60;46.50;;;;;;5013016;28;20033;-50
2022/06/02 00:41:52;;;;;;;2.67;0.93;;;24.60;47.30;;;;;;5012352;28;20027;-49
2022/06/02 00:44:50;;;;;;;2.47;0.93;;;24.60;46.60;;;;;;5012225;28;20100;-50
2022/06/02 00:47:28;;;;;;;2.33;0.90;;;24.60;46.70;;;;;;4990703;28;20044;-49
2022/06/02 00:50:20;;;;;;;3.35;0.88;;;24.60;46.60;;;;;;5011947;28;20032;-49
2022/06/02 00:53:04;;;;;;;1.88;1.00;;;24.60;46.70;;;;;;5013098;28;20022;-49
2022/06/02 00:59:19;;;;;;;1.60;0.63;;;24.60;46.70;;;;;;5013018;28;20028;-49
2022/06/02 01:01:44;;;;;;;1.67;0.80;;;24.60;46.60;;;;;;5011814;28;20112;-51
2022/06/02 01:04:15;;;;;;;1.83;0.85;;;24.60;46.70;;;;;;5013203;28;20450;-49
2022/06/02 01:07:24;;;;;;;2.22;0.98;;;24.60;46.70;;;;;;5013028;28;20026;-49
2022/06/02 01:09:57;;;;;;;1.58;0.80;;;24.60;46.60;;;;;;5004407;28;20557;-50
2022/06/02 01:12:42;;;;;;;2.55;1.00;;;24.60;46.70;;;;;;5011677;28;20029;-49
2022/06/02 01:15:15;;;;;;;1.55;0.80;;;24.60;46.70;;;;;;5011967;28;20052;-49
2022/06/02 01:17:57;;;;;;;2.35;1.00;;;24.60;46.70;;;;;;5012455;28;20098;-51
2022/06/02 01:21:01;;;;;;;2.55;0.90;;;24.60;46.70;;;;;;5012362;28;20036;-50
2022/06/02 01:23:56;;;;;;;1.52;0.82;;;24.50;46.70;;;;;;5011994;28;20033;-49
2022/06/02 01:26:48;;;;;;;2.08;0.82;;;24.50;46.70;;;;;;5012733;28;20566;-50
2022/06/02 01:29:43;;;;;;;1.83;0.90;;;24.60;46.70;;;;;;5012474;28;20113;-51
2022/06/02 01:32:12;;;;;;;1.30;0.70;;;24.50;46.70;;;;;;5012932;28;20033;-49
2022/06/02 01:34:56;;;;;;;2.00;1.00;;;24.50;46.70;;;;;;5027862;28;20609;-48
2022/06/02 01:38:03;;;;;;;2.85;0.90;;;24.50;46.80;;;;;;5011449;28;20029;-49
2022/06/02 01:40:58;;;;;;;1.10;0.50;;;24.50;46.80;;;;;;5001139;28;20036;-50
2022/06/02 01:43:39;;;;;;;1.92;0.93;;;24.50;46.70;;;;;;4990774;28;20092;-48
2022/06/02 01:46:33;;;;;;;2.28;0.93;;;24.50;46.70;;;;;;5012328;28;20505;-50
2022/06/02 01:49:05;;;;;;;2.08;0.60;;;24.50;46.80;;;;;;5014832;28;20036;-50
2022/06/02 01:51:39;;;;;;;2.00;0.80;;;24.50;46.70;;;;;;5015358;28;20022;-51
2022/06/02 01:54:49;;;;;;;2.00;0.90;;;24.50;46.80;;;;;;5013390;28;20524;-51
2022/06/02 01:57:27;;;;;;;1.42;0.70;;;24.50;46.70;;;;;;5014890;28;20079;-49
2022/06/02 02:00:15;;;;;;;1.83;1.00;;;24.50;46.80;;;;;;5015549;28;20101;-50
2022/06/02 02:02:46;;;;;;;2.15;1.00;;;24.50;46.80;;;;;;5015104;28;20113;-50
2022/06/02 02:05:34;;;;;;;1.70;0.80;;;24.50;46.70;;;;;;5015280;28;20022;-50
2022/06/02 02:08:06;;;;;;;1.23;0.60;;;24.50;46.80;;;;;;5015613;28;20101;-48
2022/06/02 02:10:50;;;;;;;2.78;1.05;;;24.50;46.80;;;;;;5016005;28;20029;-49
2022/06/02 02:13:27;;;;;;;2.42;1.05;;;24.50;46.80;;;;;;5015399;28;20030;-49
2022/06/02 02:16:14;;;;;;;1.48;0.68;;;24.50;46.80;;;;;;5015746;28;20108;-50
2022/06/02 02:18:49;;;;;;;2.05;0.80;;;24.50;46.80;;;;;;5016135;28;20107;-49
2022/06/02 02:21:21;;;;;;;1.27;0.60;;;24.50;46.80;;;;;;5015657;28;20056;-49
2022/06/02 02:24:09;;;;;;;2.08;0.95;;;24.50;46.80;;;;;;5015679;28;20022;-50
2022/06/02 02:27:16;;;;;;;1.15;0.65;;;24.50;46.80;;;;;;5014936;28;20026;-49
2022/06/02 02:30:00;;;;;;;1.98;0.70;;;24.50;46.70;;;;;;5015599;28;20037;-49
2022/06/02 02:32:45;;;;;;;1.33;0.73;;;24.50;46.70;;;;;;5014136;28;20036;-50
2022/06/02 02:35:32;;;;;;;1.42;0.82;;;24.50;46.70;;;;;;5015409;28;20034;-50
2022/06/02 02:38:04;;;;;;;2.05;0.80;;;24.50;46.80;;;;;;5014090;28;20028;-50
2022/06/02 02:40:47;;;;;;;1.75;0.93;;;24.50;46.70;;;;;;5013715;28;20025;-50
2022/06/02 02:43:39;;;;;;;1.70;0.80;;;24.50;46.70;;;;;;5015517;28;20029;-49
2022/06/02 02:46:08;;;;;;;0.98;0.63;;;24.50;46.70;;;;;;4996307;28;20033;-48
2022/06/02 02:49:02;;;;;;;2.58;0.90;;;24.50;46.80;;;;;;5014215;28;20041;-50
2022/06/02 02:51:31;;;;;;;2.67;0.88;;;24.40;46.70;;;;;;5015168;28;20033;-49
2022/06/02 02:54:04;;;;;;;1.70;0.65;;;24.50;46.70;;;;;;5013148;28;20551;-49
2022/06/02 02:56:40;;;;;;;1.05;0.70;;;24.40;46.70;;;;;;5014511;28;20033;-51
2022/06/02 02:59:31;;;;;;;1.63;0.73;;;24.40;46.70;;;;;;5015810;28;20569;-50
2022/06/02 03:02:13;;;;;;;2.17;1.08;;;24.40;46.70;;;;;;5020592;28;20061;-49
2022/06/02 03:04:50;;;;;;;1.10;0.65;;;24.40;46.70;;;;;;5014053;28;20045;-49
2022/06/02 03:07:17;;;;;;;1.35;0.55;;;24.40;46.70;;;;;;5014506;28;20484;-50
2022/06/02 03:09:46;;;;;;;1.52;0.60;;;24.40;46.70;;;;;;5014697;28;20029;-49
2022/06/02 03:12:35;;;;;;;0.73;0.52;;;24.40;46.80;;;;;;5014202;28;20022;-50
2022/06/02 03:15:19;;;;;;;2.28;0.57;;;24.40;46.70;;;;;;5014581;28;20093;-49
2022/06/02 03:18:06;;;;;;;2.15;0.68;;;24.40;46.70;;;;;;5014860;28;20616;-47
2022/06/02 03:20:43;;;;;;;1.80;0.75;;;24.40;47.00;;;;;;5014247;28;20022;-48
2022/06/02 03:23:27;;;;;;;1.40;0.80;;;24.40;46.60;;;;;;5014710;28;20030;-48
2022/06/02 03:26:22;;;;;;;1.23;0.70;;;24.40;46.70;;;;;;5014469;28;20036;-49
2022/06/02 03:29:06;;;;;;;1.08;0.60;;;24.40;46.60;;;;;;5014186;28;20595;-49
2022/06/02 03:31:45;;;;;;;1.15;0.80;;;24.40;46.60;;;;;;5022015;28;20453;-48
2022/06/02 03:34:33;;;;;;;0.80;0.50;;;24.40;46.70;;;;;;5013726;28;20035;-49
2022/06/02 03:37:26;;;;;;;1.27;0.70;;;24.40;46.60;;;;;;5013978;28;20017;-50
2022/06/02 03:40:01;;;;;;;;;;;24.40;46.70;;;;;;5014355;28;20022;-49
2022/06/02 03:42:37;;;;;;;1.58;0.80;;;24.40;46.60;;;;;;5013786;28;19905;-50
2022/06/02 03:45:39;;;;;;;1.60;0.73;;;24.40;46.70;;;;;;5013915;28;20018;-48
2022/06/02 03:48:13;;;;;;;2.15;0.93;;;24.40;46.70;;;;;;4980146;28;20041;-49
2022/06/02 03:50:48;;;;;;;0.77;0.55;;;24.40;46.70;;;;;;5013334;28;20060;-50
2022/06/02 03:53:32;;;;;;;2.35;1.10;;;24.40;46.70;;;;;;5013831;28;20112;-50
2022/06/02 03:56:01;;;;;;;1.05;0.68;;;24.40;47.00;;;;;;5013355;28;20080;-50
2022/06/02 03:58:27;;;;;;;3.22;0.82;;;24.40;46.70;;;;;;5015347;28;20029;-49
2022/06/02 04:01:01;;;;;;;2.00;1.08;;;24.40;46.70;;;;;;5016344;28;20108;-50
2022/06/02 04:03:36;;;;;;;1.65;0.90;;;24.40;46.70;;;;;;5015635;28;20021;-48
2022/06/02 04:06:18;;;;;;;1.45;0.70;;;24.30;46.80;;;;;;5015576;28;20638;-49
2022/06/02 04:09:06;;;;;;;2.33;0.77;;;24.40;46.70;;;;;;5014386;28;20026;-50
2022/06/02 04:15:32;;;;;;;1.27;0.70;;;24.30;46.70;;;;;;5015581;28;20056;-50
2022/06/02 04:18:35;;;;;;;1.25;0.70;;;24.40;46.70;;;;;;4971994;28;20030;-50
2022/06/02 04:21:33;;;;;;;1.98;0.80;;;24.30;46.70;;;;;;5013344;28;20045;-49
2022/06/02 04:24:29;;;;;;;1.73;0.80;;;24.30;46.70;;;;;;5012114;28;20084;-48
2022/06/02 04:27:06;;;;;;;1.60;0.88;;;24.40;46.80;;;;;;5012877;28;20026;-50
2022/06/02 04:30:06;;;;;;;2.30;1.00;;;24.40;46.80;;;;;;5013237;28;20033;-49
2022/06/02 04:32:57;;;;;;;1.92;0.73;;;24.40;46.80;;;;;;5015687;28;20040;-49
2022/06/02 04:35:35;;;;;;;1.90;0.70;;;24.30;46.70;;;;;;5018842;28;20026;-49
2022/06/02 04:38:36;;;;;;;2.95;1.10;;;24.30;46.70;;;;;;5014157;28;20080;-48
2022/06/02 04:41:24;;;;;;;0.98;0.60;;;24.30;46.70;;;;;;5004533;28;20041;-48
2022/06/02 04:44:08;;;;;;;1.90;0.73;;;24.30;46.70;;;;;;5013940;28;20038;-50
2022/06/02 04:46:46;;;;;;;1.83;0.80;;;24.30;46.60;;;;;;5014392;28;20037;-49
2022/06/02 04:49:52;;;;;;;2.22;0.75;;;24.30;46.50;;;;;;5013641;28;20472;-48
2022/06/02 04:52:55;;;;;;;1.58;0.75;;;24.30;46.50;;;;;;5011042;28;20509;-50
2022/06/02 04:55:51;;;;;;;1.65;0.82;;;24.30;46.60;;;;;;4976545;28;20046;-50
2022/06/02 04:58:21;;;;;;;1.92;1.08;;;24.30;46.60;;;;;;5012976;28;20080;-51
2022/06/02 05:01:03;;;;;;;1.20;0.63;;;24.30;46.70;;;;;;5014363;28;20029;-49
2022/06/02 05:04:05;;;;;;;1.27;0.70;;;24.30;46.70;;;;;;5012150;28;20135;-48
2022/06/02 05:06:41;;;;;;;1.33;0.68;;;24.30;46.70;;;;;;5010585;28;20033;-50
2022/06/02 05:09:22;;;;;;;2.55;0.80;;;24.30;46.90;;;;;;5016199;28;20026;-51
2022/06/02 05:11:50;;;;;;;2.03;0.93;;;24.30;46.90;;;;;;5016040;28;20033;-48
2022/06/02 05:14:39;;;;;;;1.70;0.90;;;24.40;47.70;;;;;;5014460;28;20033;-49
2022/06/02 05:17:42;;;;;;;2.72;1.00;;;24.30;47.60;;;;;;5013739;28;20076;-49
2022/06/02 05:20:24;;;;;;;1.50;0.73;;;24.40;48.10;;;;;;5013340;28;20388;-50
2022/06/02 05:23:11;;;;;;;2.15;0.90;;;24.40;48.20;;;;;;5012203;28;20034;-49
2022/06/02 05:26:01;;;;;;;1.73;1.00;;;24.40;48.40;;;;;;5010792;28;20116;-49
2022/06/02 05:28:58;;;;;;;1.05;0.68;;;24.40;48.20;;;;;;5013684;28;20029;-49
2022/06/02 05:31:36;;;;;;;1.25;0.82;;;24.50;48.40;;;;;;5021746;28;20034;-49
2022/06/02 05:34:32;;;;;;;2.80;0.90;;;24.50;48.50;;;;;;5017132;28;20596;-48
2022/06/02 05:37:08;;;;;;;1.95;0.82;;;24.50;48.40;;;;;;5016055;28;20049;-47
2022/06/02 05:39:55;;;;;;;1.13;0.70;;;24.60;48.10;;;;;;5015688;28;20101;-48
2022/06/02 05:43:11;;;;;;;2.15;0.70;;;24.60;48.00;;;;;;5015206;28;20051;-49
2022/06/02 05:46:01;;;;;;;1.48;0.63;;;24.60;47.90;;;;;;4973637;28;20018;-48
2022/06/02 05:48:41;;;;;;;1.65;0.73;;;24.60;47.90;;;;;;4973166;28;20074;-49
2022/06/02 05:51:29;;;;;;;1.80;0.80;;;24.60;47.90;;;;;;5004913;28;20045;-49
2022/06/02 05:54:14;;;;;;;2.65;1.00;;;24.60;48.40;;;;;;5016548;28;20056;-48
2022/06/02 05:57:00;;;;;;;3.65;1.02;;;24.70;48.90;;;;;;5016921;28;20022;-48
2022/06/02 05:59:25;;;;;;;2.70;1.20;;;24.70;48.90;;;;;;5016368;28;20021;-50
2022/06/02 06:02:26;;;;;;;1.67;0.77;;;24.70;49.20;;;;;;5015737;28;20072;-48
2022/06/02 06:05:17;;;;;;;1.83;1.00;;;24.70;49.00;;;;;;5016706;28;20111;-49
2022/06/02 06:08:07;;;;;;;6.07;1.95;;;24.70;48.90;;;;;;5016027;28;20028;-52
2022/06/02 06:11:01;;;;;;;5.25;2.05;;;24.70;50.90;;;;;;5005709;28;20124;-48
2022/06/02 06:13:33;;;;;;;7.50;2.58;;;24.80;51.80;;;;;;5008394;28;20041;-48
2022/06/02 06:16:19;;;;;;;6.90;2.17;;;24.80;52.20;;;;;;5016737;28;20026;-48
2022/06/02 06:19:06;;;;;;;7.40;2.22;;;24.80;51.40;;;;;;5015582;28;20017;-48
2022/06/02 06:21:49;;;;;;;4.72;1.70;;;24.80;51.00;;;;;;5016148;28;20022;-50
2022/06/02 06:24:50;;;;;;;4.40;1.77;;;24.90;50.90;;;;;;5015855;28;20029;-49
2022/06/02 06:27:42;;;;;;;5.13;1.52;;;24.90;50.50;;;;;;5014848;28;20041;-49
2022/06/02 06:30:20;;;;;;;4.13;1.53;;;24.90;50.40;;;;;;4995959;28;20083;-51
2022/06/02 06:33:06;;;;;;;4.38;1.90;;;24.90;50.10;;;;;;5014038;28;20029;-48
2022/06/02 06:36:13;;;;;;;4.38;1.80;;;24.90;50.00;;;;;;5014677;28;20025;-49
2022/06/02 06:39:04;;;;;;;5.68;1.50;;;24.90;49.70;;;;;;4992400;28;20042;-48
2022/06/02 06:42:14;;;;;;;3.47;1.30;;;24.90;50.20;;;;;;5014537;28;20029;-49
2022/06/02 06:44:56;;;;;;;3.53;1.50;;;24.90;50.50;;;;;;4990518;28;20583;-50
2022/06/02 06:47:30;;;;;;;5.78;1.50;;;24.90;50.10;;;;;;5018508;28;20440;-50
2022/06/02 06:50:05;;;;;;;3.35;1.40;;;24.90;49.90;;;;;;5025654;28;20170;-49
2022/06/02 06:52:43;;;;;;;5.10;1.52;;;25.00;49.70;;;;;;5025872;28;20031;-51
2022/06/02 06:55:41;;;;;;;3.78;1.33;;;25.00;49.50;;;;;;5025395;28;20063;-49
2022/06/02 06:58:25;;;;;;;5.03;1.50;;;25.00;49.40;;;;;;5020594;28;20322;-49
2022/06/02 07:01:04;;;;;;;3.10;1.38;;;25.00;49.30;;;;;;5024259;28;20036;-49
2022/06/02 07:04:21;;;;;;;2.40;1.20;;;25.00;49.10;;;;;;5020626;28;20112;-50
2022/06/02 07:07:11;;;;;;;2.90;1.40;;;25.00;49.00;;;;;;4957275;28;20483;-51
2022/06/02 07:09:55;;;;;;;3.38;1.30;;;25.00;48.90;;;;;;5015450;28;20524;-51
2022/06/02 07:12:52;;;;;;;3.13;1.10;;;25.00;48.80;;;;;;5017628;28;20299;-50
2022/06/02 07:15:44;;;;;;;2.15;1.00;;;25.00;48.80;;;;;;5017226;28;20718;-52
2022/06/02 07:18:49;;;;;;;2.90;1.20;;;25.00;48.70;;;;;;5013884;28;20029;-52
2022/06/02 07:21:27;;;;;;;3.58;1.20;;;25.00;48.80;;;;;;5020230;28;20028;-51
2022/06/02 07:24:08;;;;;;;2.70;1.10;;;25.00;48.80;;;;;;5025316;28;20033;-51
2022/06/02 07:26:58;;;;;;;3.25;1.05;;;25.00;48.60;;;;;;5024758;28;20044;-51
2022/06/02 07:29:39;;;;;;;2.55;1.25;;;25.00;48.60;;;;;;5009434;28;20029;-51
2022/06/02 07:32:28;;;;;;;2.85;1.15;;;25.00;48.50;;;;;;5013732;28;20036;-52
2022/06/02 07:34:54;;;;;;;2.92;1.30;;;25.00;48.50;;;;;;5004581;28;20038;-52
2022/06/02 07:37:42;;;;;;;2.28;1.27;;;25.00;48.50;;;;;;5005423;28;20088;-52
2022/06/02 07:40:39;;;;;;;3.25;1.17;;;25.00;49.20;;;;;;5004620;28;20022;-53
2022/06/02 07:43:10;;;;;;;3.03;1.25;;;25.00;48.50;;;;;;5021847;28;20551;-51
2022/06/02 07:45:45;;;;;;;2.25;1.15;;;25.00;48.50;;;;;;5017897;28;20025;-51
2022/06/02 07:48:46;;;;;;;2.40;1.10;;;25.00;48.50;;;;;;5013283;28;20025;-53
2022/06/02 07:51:18;;;;;;;3.45;1.10;;;24.90;48.40;;;;;;5023426;28;20405;-51
2022/06/02 07:54:08;;;;;;;1.75;0.70;;;25.00;48.40;;;;;;5020133;28;20030;-54
2022/06/02 07:56:57;;;;;;;2.92;1.38;;;25.00;48.40;;;;;;5014430;28;20021;-51
2022/06/02 07:59:44;;;;;;;2.83;1.02;;;25.00;48.30;;;;;;5015948;28;20040;-53
2022/06/02 08:02:29;;;;;;;4.88;1.52;;;25.00;49.00;;;;;;5015100;28;20021;-50
2022/06/02 08:05:34;;;;;;;2.58;1.20;;;25.00;48.20;;;;;;5018501;28;20025;-51
2022/06/02 08:08:10;;;;;;;4.47;1.73;;;25.00;48.30;;;;;;5010663;28;20592;-52
2022/06/02 08:10:47;;;;;;;2.92;1.20;;;25.00;48.30;;;;;;5017191;28;20077;-53
2022/06/02 08:13:19;;;;;;;4.50;1.65;;;24.90;48.30;;;;;;5022538;28;20121;-51
2022/06/02 08:16:09;;;;;;;4.30;1.70;;;24.90;48.30;;;;;;5024175;28;20029;-51
2022/06/02 08:18:53;;;;;;;2.88;1.38;;;24.90;48.30;;;;;;5016350;28;20112;-52
2022/06/02 08:21:53;;;;;;;4.63;1.40;;;24.90;48.40;;;;;;5016642;28;20061;-52
2022/06/02 08:24:42;;;;;;;3.83;1.42;;;24.90;48.30;;;;;;5015048;28;20037;-52
2022/06/02 08:27:44;;;;;;;5.60;1.70;;;24.90;48.30;;;;;;5010247;28;20378;-52
2022/06/02 08:30:32;;;;;;;3.70;1.30;;;24.90;48.20;;;;;;5011084;28;20112;-52
2022/06/02 08:33:29;;;;;;;3.40;1.20;;;24.90;48.30;;;;;;5014310;28;20113;-50
2022/06/02 08:36:17;;;;;;;3.53;1.25;;;24.90;48.30;;;;;;4999666;28;20037;-51
2022/06/02 08:38:49;;;;;;;3.42;1.40;;;25.00;48.30;;;;;;5005386;28;20021;-52
2022/06/02 08:41:30;;;;;;;5.60;1.50;;;24.90;48.30;;;;;;5013109;28;20122;-50
2022/06/02 08:44:08;;;;;;;3.75;1.10;;;24.90;48.30;;;;;;5022754;28;20480;-52
2022/06/02 08:47:10;;;;;;;3.40;1.20;;;24.90;48.30;;;;;;5023335;28;20481;-51
2022/06/02 08:50:13;;;;;;;4.32;1.20;;;24.90;48.30;;;;;;5022606;28;20105;-51
2022/06/02 08:52:57;;;;;;;4.20;1.10;;;24.90;48.30;;;;;;5023177;28;20037;-51
2022/06/02 08:55:57;;;;;;;3.65;1.40;;;24.90;48.30;;;;;;5023994;28;20565;-50
2022/06/02 08:58:51;;;;;;;3.97;1.38;;;24.90;48.30;;;;;;5023130;28;20485;-52
2022/06/02 09:01:35;;;;;;;;;;;24.90;48.30;;;;;;5024291;28;20581;-51
2022/06/02 09:04:03;;;;;;;2.75;1.10;;;25.00;48.30;;;;;;5023130;28;20092;-52
2022/06/02 09:06:51;;;;;;;2.90;1.27;;;24.90;48.40;;;;;;5023934;28;20104;-50
2022/06/02 09:09:35;;;;;;;2.50;1.00;;;24.90;48.40;;;;;;5023288;28;20052;-51
2022/06/02 09:12:12;;;;;;;3.72;1.50;;;24.90;48.40;;;;;;5023821;28;20409;-51
2022/06/02 09:14:58;;;;;;;2.45;1.05;;;24.90;48.50;;;;;;5023743;28;20056;-51
2022/06/02 09:18:02;;;;;;;2.83;1.00;;;24.90;48.40;;;;;;5023289;28;20033;-51
2022/06/02 09:20:50;;;;;;;3.30;1.35;;;24.90;48.50;;;;;;5023977;28;20025;-52
2022/06/02 09:23:15;;;;;;;3.10;1.08;;;24.90;48.50;;;;;;5022886;28;20405;-51
2022/06/02 09:26:02;;;;;;;3.83;1.20;;;24.90;48.30;;;;;;5023880;28;20029;-52
2022/06/02 09:28:31;;;;;;;2.42;1.48;;;24.90;48.30;;;;;;5022602;28;20029;-51
2022/06/02 09:31:06;;;;;;;2.58;1.17;;;24.90;48.20;;;;;;5022610;28;20112;-52
2022/06/02 09:33:52;;;;;;;2.80;1.10;;;24.90;48.20;;;;;;5023202;28;20029;-51
2022/06/02 09:36:55;;;;;;;2.88;1.20;;;24.90;48.20;;;;;;5023503;28;20033;-52
2022/06/02 09:39:34;;;;;;;;;;;24.90;48.10;;;;;;5024234;28;20026;-53
2022/06/02 09:42:34;;;;;;;1.85;0.82;;;24.90;48.10;;;;;;5023497;28;19905;-52
2022/06/02 09:45:14;;;;;;;2.72;1.38;;;24.90;48.20;;;;;;5003576;28;20040;-53
2022/06/02 09:47:52;;;;;;;2.67;1.10;;;24.90;48.20;;;;;;5022530;28;20252;-51
2022/06/02 09:50:45;;;;;;;2.03;0.80;;;24.90;48.20;;;;;;5023719;28;20116;-52
2022/06/02 09:53:37;;;;;;;2.35;0.90;;;24.90;48.20;;;;;;5022839;28;20053;-52
2022/06/02 09:56:27;;;;;;;3.85;1.23;;;24.90;48.20;;;;;;5019182;28;20037;-52
2022/06/02 09:59:25;;;;;;;2.60;1.00;;;24.90;48.20;;;;;;5023297;28;20555;-51
2022/06/02 10:01:57;;;;;;;3.03;1.13;;;24.90;48.20;;;;;;5022675;28;20079;-52
2022/06/02 10:04:35;;;;;;;2.15;0.85;;;24.90;48.20;;;;;;5023436;28;20029;-51
2022/06/02 10:07:08;;;;;;;2.45;0.98;;;24.90;48.20;;;;;;5023022;28;20056;-51
2022/06/02 10:09:46;;;;;;;2.35;1.10;;;24.90;48.20;;;;;;5023580;28;20105;-53
2022/06/02 10:13:00;;;;;;;2.50;1.00;;;24.90;48.20;;;;;;5022085;28;20077;-51
2022/06/02 10:15:46;;;;;;;2.33;0.90;;;24.90;48.10;;;;;;5011738;28;20502;-53
2022/06/02 10:18:34;;;;;;;1.85;0.75;;;24.90;48.10;;;;;;5027166;28;20445;-53
2022/06/02 10:21:14;;;;;;;1.67;0.90;;;24.90;48.00;;;;;;5019863;28;20052;-51
2022/06/02 10:24:01;;;;;;;2.05;0.90;;;24.90;48.00;;;;;;5026996;28;20034;-52
2022/06/02 10:27:01;;;;;;;1.88;0.82;;;24.90;48.00;;;;;;5026949;28;20041;-51
2022/06/02 10:29:45;;;;;;;2.85;1.08;;;24.90;48.00;;;;;;5008197;28;20064;-51
2022/06/02 10:32:42;;;;;;;3.88;1.38;;;24.90;48.00;;;;;;5025647;28;20052;-52
2022/06/02 10:35:45;;;;;;;1.98;0.82;;;24.90;48.00;;;;;;5026278;28;20196;-54
2022/06/02 10:38:48;;;;;;;2.10;0.90;;;24.90;48.10;;;;;;5027185;28;20044;-53
2022/06/02 10:41:25;;;;;;;1.90;0.82;;;24.90;48.00;;;;;;5026812;28;20609;-53
2022/06/02 10:44:05;;;;;;;2.08;0.80;;;24.90;48.00;;;;;;5026866;28;20029;-53
2022/06/02 10:47:22;;;;;;;1.90;0.80;;;24.90;48.10;;;;;;5026784;28;20498;-53
2022/06/02 10:50:25;;;;;;;1.30;0.65;;;24.90;48.10;;;;;;4994205;28;20372;-53
2022/06/02 10:53:29;;;;;;;1.98;0.90;;;24.90;48.00;;;;;;4993415;28;20038;-51
2022/06/02 10:55:58;;;;;;;;;;;24.90;48.00;;;;;;5021140;28;20563;-51
2022/06/02 10:58:41;;;;;;;1.70;0.85;;;24.90;48.00;;;;;;5026525;28;20368;-52
2022/06/02 11:01:26;;;;;;;1.50;0.80;;;24.90;48.00;;;;;;5006485;28;20038;-54
2022/06/02 11:04:17;;;;;;;2.35;0.85;;;24.90;48.00;;;;;;5025335;28;20060;-52
2022/06/02 11:07:00;;;;;;;1.23;0.70;;;24.90;47.90;;;;;;5026249;28;20448;-51
2022/06/02 11:10:03;;;;;;;1.35;0.63;;;24.90;47.90;;;;;;5026187;28;20037;-52
2022/06/02 11:13:06;;;;;;;1.58;0.73;;;24.90;47.80;;;;;;5006243;28;20061;-52
2022/06/02 11:16:09;;;;;;;1.83;0.85;;;24.90;47.80;;;;;;5006244;28;20046;-52
2022/06/02 11:19:19;;;;;;;1.65;0.80;;;24.90;47.90;;;;;;5022538;28;20033;-51
2022/06/02 11:21:57;;;;;;;1.55;0.80;;;24.90;47.80;;;;;;5025425;28;20053;-51
2022/06/02 11:24:51;;;;;;;1.75;0.88;;;24.90;47.90;;;;;;5026252;28;20022;-53
2022/06/02 11:27:32;;;;;;;2.63;0.98;;;25.00;47.90;;;;;;5024196;28;20125;-52
2022/06/02 11:30:12;;;;;;;1.35;0.70;;;25.00;47.90;;;;;;5005767;28;20018;-51
2022/06/02 11:33:13;;;;;;;1.60;0.80;;;25.00;47.90;;;;;;5013630;28;20501;-52
2022/06/02 11:36:06;;;;;;;2.20;0.80;;;25.00;48.00;;;;;;5024494;28;20032;-52
2022/06/02 11:38:46;;;;;;;2.03;0.80;;;25.00;48.00;;;;;;5025655;28;20053;-53
2022/06/02 11:41:49;;;;;;;3.03;1.00;;;25.00;47.90;;;;;;5025715;28;20340;-53
2022/06/02 11:44:32;;;;;;;2.13;0.85;;;25.00;47.90;;;;;;5025296;28;20030;-53
2022/06/02 11:47:41;;;;;;;1.52;0.75;;;25.00;47.90;;;;;;5025711;28;20426;-53
2022/06/02 11:50:28;;;;;;;2.53;0.93;;;25.10;47.90;;;;;;5025452;28;20030;-51
2022/06/02 11:53:25;;;;;;;1.42;0.70;;;25.00;48.60;;;;;;5024820;28;20056;-54
2022/06/02 11:55:50;;;;;;;1.85;0.90;;;25.00;47.80;;;;;;5024864;28;20043;-52
2022/06/02 11:58:35;;;;;;;1.60;0.70;;;25.10;47.80;;;;;;5025276;28;20493;-52
2022/06/02 12:01:12;;;;;;;1.42;0.60;;;25.10;47.80;;;;;;5024111;28;20202;-52
2022/06/02 12:03:44;;;;;;;1.52;0.68;;;25.10;47.80;;;;;;5024720;28;20044;-51
2022/06/02 12:06:18;;;;;;;1.45;0.60;;;25.10;47.80;;;;;;5025237;28;20038;-51
2022/06/02 12:09:39;;;;;;;1.83;0.70;;;25.10;48.10;;;;;;5025473;28;20025;-51
2022/06/02 12:12:12;;;;;;;3.40;0.75;;;25.10;47.70;;;;;;4982447;28;20256;-52
2022/06/02 12:15:14;;;;;;;1.23;0.55;;;25.20;47.70;;;;;;5018219;28;20041;-52
2022/06/02 12:17:49;;;;;;;1.73;0.80;;;25.20;47.60;;;;;;5023240;28;20593;-52
2022/06/02 12:20:41;;;;;;;1.65;0.70;;;25.20;47.60;;;;;;5024511;28;20144;-51
2022/06/02 12:23:25;;;;;;;2.00;0.63;;;25.20;47.60;;;;;;5022955;28;20489;-51
2022/06/02 12:26:00;;;;;;;1.60;0.73;;;25.20;47.60;;;;;;5024193;28;20048;-52
2022/06/02 12:28:34;;;;;;;1.92;0.90;;;25.20;47.50;;;;;;5023688;28;20017;-50
2022/06/02 12:31:19;;;;;;;1.23;0.60;;;25.30;47.50;;;;;;5024076;28;20474;-52
2022/06/02 12:33:50;;;;;;;2.17;0.77;;;25.30;47.40;;;;;;5023651;28;20037;-51
2022/06/02 12:36:25;;;;;;;1.27;0.60;;;25.30;47.40;;;;;;5024915;28;20036;-52
2022/06/02 12:38:56;;;;;;;2.08;0.70;;;25.30;47.30;;;;;;5023551;28;20082;-52
2022/06/02 12:41:39;;;;;;;2.05;0.80;;;25.30;47.30;;;;;;5024401;28;20033;-52
2022/06/02 12:44:37;;;;;;;1.30;0.50;;;25.30;47.20;;;;;;5023961;28;20029;-52
2022/06/02 12:47:14;;;;;;;1.27;0.68;;;25.30;47.10;;;;;;5023712;28;20033;-51
2022/06/02 12:49:57;;;;;;;1.25;0.70;;;25.30;47.10;;;;;;5023896;28;20648;-52
2022/06/02 12:52:47;;;;;;;1.20;0.60;;;25.30;47.10;;;;;;5022869;28;20048;-52
2022/06/02 12:55:40;;;;;;;0.95;0.40;;;25.30;47.00;;;;;;5023536;28;20040;-53
2022/06/02 12:58:27;;;;;;;2.00;0.90;;;25.30;47.00;;;;;;5022765;28;20104;-51
2022/06/02 13:01:28;;;;;;;1.02;0.60;;;25.40;47.00;;;;;;5023272;28;20382;-52
2022/06/02 13:04:15;;;;;;;1.05;0.60;;;25.30;47.00;;;;;;5023397;28;20048;-50
2022/06/02 13:06:41;;;;;;;2.17;0.80;;;25.40;46.90;;;;;;5023843;28;20021;-52
2022/06/02 13:09:27;;;;;;;1.40;0.60;;;25.40;46.90;;;;;;5024289;28;20708;-51
2022/06/02 13:11:56;;;;;;;1.80;0.70;;;25.40;46.90;;;;;;5023167;28;20037;-51
2022/06/02 13:14:53;;;;;;;1.58;0.70;;;25.40;46.90;;;;;;5022439;28;20142;-52
2022/06/02 13:17:56;;;;;;;1.83;0.70;;;25.40;47.00;;;;;;5022965;28;20018;-53
2022/06/02 13:21:03;;;;;;;0.93;0.60;;;25.40;46.90;;;;;;5023176;28;20083;-54
2022/06/02 13:23:32;;;;;;;0.90;0.55;;;25.40;46.90;;;;;;5022718;28;20036;-52
2022/06/02 13:26:45;;;;;;;1.48;0.68;;;25.40;46.90;;;;;;5022924;28;20057;-53
2022/06/02 13:29:34;;;;;;;0.70;0.40;;;25.40;46.90;;;;;;4979327;28;20030;-51
2022/06/02 13:32:48;;;;;;;1.13;0.60;;;25.40;47.00;;;;;;4979745;28;20046;-52
2022/06/02 13:35:23;;;;;;;;;;;25.40;47.10;;;;;;4986324;28;20064;-53
2022/06/02 13:38:09;;;;;;;0.68;0.40;;;25.40;47.10;;;;;;5022137;28;19947;-52
2022/06/02 13:40:37;;;;;;;1.33;0.60;;;25.40;47.00;;;;;;5023206;28;20075;-52
2022/06/02 13:43:18;;;;;;;0.75;0.50;;;25.40;47.00;;;;;;5020797;28;20036;-52
2022/06/02 13:46:21;;;;;;;0.75;0.55;;;25.50;47.10;;;;;;5023035;28;20036;-51
2022/06/02 13:49:31;;;;;;;1.70;0.60;;;25.50;47.00;;;;;;5023430;28;20034;-51
2022/06/02 13:52:02;;;;;;;1.48;0.63;;;25.50;47.00;;;;;;5027084;28;20064;-53
2022/06/02 13:57:50;;;;;;;1.20;0.50;;;25.50;46.90;;;;;;5025787;28;20033;-51
2022/06/02 14:00:28;;;;;;;1.58;0.60;;;25.50;46.90;;;;;;5026732;28;20116;-51
2022/06/02 14:03:22;;;;;;;1.27;0.70;;;25.50;46.90;;;;;;5025701;28;20326;-53
2022/06/02 14:06:20;;;;;;;1.95;0.68;;;25.60;46.90;;;;;;5026954;28;20024;-53
2022/06/02 14:09:17;;;;;;;1.98;0.75;;;25.50;46.80;;;;;;5023720;28;20038;-51
2022/06/02 14:11:46;;;;;;;1.80;0.90;;;25.60;46.80;;;;;;5026334;28;20064;-52
2022/06/02 14:14:38;;;;;;;1.58;0.63;;;25.60;46.80;;;;;;5026097;28;20108;-52
2022/06/02 14:17:33;;;;;;;1.48;0.68;;;25.60;46.80;;;;;;5026148;28;20077;-52
2022/06/02 14:20:16;;;;;;;1.75;0.80;;;25.60;46.70;;;;;;5026708;28;20022;-52
2022/06/02 14:23:09;;;;;;;1.35;0.55;;;25.60;46.60;;;;;;5026849;28;20026;-53
2022/06/02 14:25:46;;;;;;;1.42;0.65;;;25.60;46.60;;;;;;5024489;28;20026;-51
2022/06/02 14:28:40;;;;;;;1.83;0.50;;;25.60;46.60;;;;;;5026292;28;20018;-51
2022/06/02 14:31:13;;;;;;;1.02;0.60;;;25.60;46.60;;;;;;5026892;28;20387;-53
2022/06/02 14:33:45;;;;;;;0.88;0.50;;;25.60;47.40;;;;;;5025307;28;20022;-52
2022/06/02 14:36:35;;;;;;;1.00;0.52;;;25.60;46.70;;;;;;5026974;28;20154;-52